Time;durP1;ratioP1;P1;durP2;ratioP2;P2;SDS_P1;SDS_P2;PMS_P1;PMS_P2;Temp;Humidity;BMP_temperature;BMP_pressure;BME280_temperature;BME280_humidity;BME280_pressure;Samples;Min_cycle;Max_cycle;Signal;HPM_P1;HPM_P2
2021/01/23 00:01:42;;;;;;;18.08;9.30;;;23.70;32.10;;;;;;6102960;28;80650;-64
2021/01/23 00:04:42;;;;;;;24.75;11.05;;;23.60;32.00;;;;;;6100078;28;80782;-63
2021/01/23 00:07:43;;;;;;;20.92;11.00;;;23.70;32.00;;;;;;6076921;28;83534;-64
2021/01/23 00:10:43;;;;;;;22.15;11.40;;;23.60;32.00;;;;;;6101519;28;83278;-63
2021/01/23 00:13:44;;;;;;;20.85;10.48;;;23.60;32.00;;;;;;6079278;28;83133;-64
2021/01/23 00:16:45;;;;;;;21.05;10.52;;;23.60;32.30;;;;;;6072369;28;83536;-65
2021/01/23 00:19:46;;;;;;;23.50;11.73;;;23.60;32.50;;;;;;6073746;28;83431;-64
2021/01/23 00:22:46;;;;;;;21.02;10.85;;;23.60;32.20;;;;;;6074125;28;83547;-64
2021/01/23 00:25:47;;;;;;;22.38;10.88;;;23.50;32.10;;;;;;6067083;28;83632;-64
2021/01/23 00:28:47;;;;;;;22.65;10.75;;;23.60;32.10;;;;;;6067633;28;83370;-64
2021/01/23 00:31:48;;;;;;;24.30;10.60;;;23.50;32.10;;;;;;6045497;28;83381;-64
2021/01/23 00:34:49;;;;;;;21.40;10.45;;;23.50;32.30;;;;;;6060461;28;84686;-64
2021/01/23 00:37:49;;;;;;;19.27;10.18;;;23.50;32.30;;;;;;6076063;28;84001;-63
2021/01/23 00:40:50;;;;;;;19.40;9.88;;;23.50;32.30;;;;;;6068162;28;83036;-64
2021/01/23 00:43:50;;;;;;;18.88;9.68;;;23.50;32.50;;;;;;6077753;28;82944;-64
2021/01/23 00:46:55;;;;;;;18.30;9.20;;;23.50;32.60;;;;;;6079275;28;80808;-64
2021/01/23 00:49:55;;;;;;;22.42;9.73;;;23.50;32.50;;;;;;6061186;28;81086;-64
2021/01/23 00:52:56;;;;;;;20.75;9.82;;;23.50;32.50;;;;;;6064432;28;83100;-64
2021/01/23 00:55:57;;;;;;;20.13;9.70;;;23.50;32.70;;;;;;6059108;28;82739;-64
2021/01/23 00:58:58;;;;;;;22.83;9.90;;;23.50;32.60;;;;;;6071528;28;81598;-64
2021/01/23 01:01:59;;;;;;;17.55;9.82;;;23.50;32.60;;;;;;6073400;28;80650;-65
2021/01/23 01:05:10;;;;;;;20.98;9.18;;;23.50;32.70;;;;;;6067955;28;82859;-65
2021/01/23 01:08:11;;;;;;;18.85;9.27;;;23.40;32.60;;;;;;6065848;28;81404;-63
2021/01/23 01:11:12;;;;;;;17.30;9.40;;;23.50;33.00;;;;;;6065782;28;81191;-65
2021/01/23 01:14:12;;;;;;;16.17;8.50;;;23.40;32.60;;;;;;6066939;28;80673;-65
2021/01/23 01:17:13;;;;;;;17.13;8.93;;;23.40;32.30;;;;;;6083729;28;81480;-66
2021/01/23 01:20:14;;;;;;;17.58;8.80;;;23.40;32.20;;;;;;6101521;28;80585;-64
2021/01/23 01:23:14;;;;;;;17.67;8.98;;;23.40;32.30;;;;;;6095331;28;80960;-64
2021/01/23 01:26:15;;;;;;;15.40;8.38;;;23.30;32.40;;;;;;6095103;28;80861;-64
2021/01/23 01:29:15;;;;;;;17.00;8.25;;;23.40;32.30;;;;;;6077623;28;80880;-64
2021/01/23 01:32:16;;;;;;;18.58;9.00;;;23.40;32.30;;;;;;6095195;28;80784;-65
2021/01/23 01:35:16;;;;;;;17.15;7.93;;;23.30;32.20;;;;;;6072158;28;80219;-65
2021/01/23 01:38:17;;;;;;;15.45;8.70;;;23.40;32.50;;;;;;6100987;28;80217;-64
2021/01/23 01:41:17;;;;;;;16.98;8.02;;;23.30;32.10;;;;;;6100653;28;90416;-65
2021/01/23 01:44:18;;;;;;;14.50;7.30;;;23.30;32.50;;;;;;6101482;28;81085;-65
2021/01/23 01:47:19;;;;;;;15.82;6.72;;;23.30;32.30;;;;;;6101074;28;80924;-65
2021/01/23 01:50:19;;;;;;;17.52;7.22;;;23.30;32.10;;;;;;6103609;28;80960;-64
2021/01/23 01:53:21;;;;;;;14.40;6.97;;;23.30;32.30;;;;;;6099844;28;81721;-64
2021/01/23 01:56:22;;;;;;;13.90;7.03;;;23.30;32.10;;;;;;6096710;28;81496;-64
2021/01/23 01:59:22;;;;;;;16.92;7.25;;;23.30;32.40;;;;;;6107791;28;82395;-65
2021/01/23 02:02:23;;;;;;;12.98;7.30;;;23.30;32.30;;;;;;6104687;28;81847;-64
2021/01/23 02:05:23;;;;;;;13.02;7.07;;;23.30;32.60;;;;;;6095699;28;83422;-65
2021/01/23 02:08:24;;;;;;;12.32;6.68;;;23.30;33.30;;;;;;6099514;28;81555;-65
2021/01/23 02:11:25;;;;;;;11.10;6.18;;;23.30;33.10;;;;;;6091904;28;80592;-65
2021/01/23 02:14:25;;;;;;;14.00;6.40;;;23.30;32.90;;;;;;6091292;28;80896;-68
2021/01/23 02:17:26;;;;;;;10.93;5.95;;;23.30;32.90;;;;;;6097634;28;81218;-64
2021/01/23 02:20:26;;;;;;;12.18;6.20;;;23.30;32.80;;;;;;6099965;28;81362;-65
2021/01/23 02:23:27;;;;;;;14.93;6.45;;;23.30;32.80;;;;;;6100792;28;80755;-65
2021/01/23 02:26:27;;;;;;;13.88;6.55;;;23.30;33.10;;;;;;6101347;28;91037;-64
2021/01/23 02:29:28;;;;;;;12.07;6.10;;;23.30;33.00;;;;;;6100320;28;81009;-65
2021/01/23 02:32:29;;;;;;;10.48;5.65;;;23.30;32.90;;;;;;6099768;28;82648;-64
2021/01/23 02:35:30;;;;;;;11.95;5.90;;;23.30;33.00;;;;;;6094436;28;80484;-64
2021/01/23 02:38:30;;;;;;;11.77;5.55;;;23.30;33.20;;;;;;6101894;28;81980;-64
2021/01/23 02:41:31;;;;;;;10.55;5.97;;;23.30;33.00;;;;;;6103455;28;80783;-65
2021/01/23 02:44:31;;;;;;;12.70;5.40;;;23.30;33.00;;;;;;6104027;28;81214;-65
2021/01/23 02:47:32;;;;;;;8.93;5.68;;;23.20;32.90;;;;;;6110146;28;80792;-65
2021/01/23 02:50:35;;;;;;;14.10;5.95;;;23.30;33.20;;;;;;6091713;28;80772;-65
2021/01/23 02:53:36;;;;;;;12.32;5.22;;;23.30;33.10;;;;;;6098570;28;81120;-65
2021/01/23 02:56:36;;;;;;;11.30;5.68;;;23.30;33.50;;;;;;6106543;28;80538;-65
2021/01/23 02:59:37;;;;;;;9.88;4.72;;;23.30;33.40;;;;;;6099067;28;81076;-65
2021/01/23 03:02:37;;;;;;;10.40;5.13;;;23.30;32.90;;;;;;6101590;28;80556;-64
2021/01/23 03:05:38;;;;;;;9.27;4.60;;;23.30;32.60;;;;;;6113270;28;82779;-63
2021/01/23 03:08:38;;;;;;;7.32;4.78;;;23.20;32.80;;;;;;6105701;28;80104;-64
2021/01/23 03:11:39;;;;;;;10.98;5.45;;;23.20;32.70;;;;;;6103806;28;80203;-64
2021/01/23 03:14:39;;;;;;;8.82;5.50;;;23.20;32.80;;;;;;6103237;28;81160;-64
2021/01/23 03:17:40;;;;;;;10.93;5.20;;;23.20;32.60;;;;;;6095889;28;81408;-65
2021/01/23 03:20:41;;;;;;;9.38;5.13;;;23.20;32.70;;;;;;6103396;28;81570;-65
2021/01/23 03:23:41;;;;;;;10.63;5.30;;;23.20;33.40;;;;;;6098580;28;84476;-64
2021/01/23 03:26:42;;;;;;;10.48;4.75;;;23.20;33.40;;;;;;6105233;28;80933;-65
2021/01/23 03:29:42;;;;;;;9.35;4.95;;;23.20;33.10;;;;;;6093351;28;80183;-64
2021/01/23 03:32:43;;;;;;;13.18;6.03;;;23.20;33.30;;;;;;6097391;28;81337;-65
2021/01/23 03:35:44;;;;;;;10.13;5.35;;;23.20;32.80;;;;;;6090238;28;80678;-64
2021/01/23 03:38:44;;;;;;;6.35;4.05;;;23.20;32.90;;;;;;6096762;28;81774;-64
2021/01/23 03:41:45;;;;;;;9.48;5.32;;;23.20;33.80;;;;;;6103009;28;80898;-64
2021/01/23 03:44:45;;;;;;;8.65;4.82;;;23.20;33.40;;;;;;6090426;28;81656;-64
2021/01/23 03:47:46;;;;;;;9.23;4.80;;;23.20;33.00;;;;;;6094346;28;80568;-64
2021/01/23 03:50:46;;;;;;;9.10;5.30;;;23.20;33.10;;;;;;6098098;28;83248;-65
2021/01/23 03:53:47;;;;;;;8.50;4.80;;;23.20;32.80;;;;;;6102688;28;80374;-64
2021/01/23 03:56:47;;;;;;;8.35;4.65;;;23.20;32.90;;;;;;6103097;28;80691;-63
2021/01/23 03:59:48;;;;;;;9.70;5.00;;;23.20;33.40;;;;;;6104228;28;80173;-63
2021/01/23 04:02:48;;;;;;;7.85;5.00;;;23.10;33.90;;;;;;6100548;28;80798;-64
2021/01/23 04:05:49;;;;;;;9.18;4.75;;;23.10;34.00;;;;;;6102024;28;80734;-65
2021/01/23 04:08:49;;;;;;;9.05;5.03;;;23.20;34.00;;;;;;6092091;28;80914;-63
2021/01/23 04:11:50;;;;;;;7.95;4.28;;;23.10;34.20;;;;;;6103621;28;80788;-63
2021/01/23 04:14:51;;;;;;;8.63;4.60;;;23.20;33.60;;;;;;6094037;28;80302;-64
2021/01/23 04:17:51;;;;;;;8.35;4.30;;;23.20;33.60;;;;;;6096782;28;81615;-64
2021/01/23 04:20:52;;;;;;;10.95;5.40;;;23.20;33.50;;;;;;6095988;28;80464;-64
2021/01/23 04:23:52;;;;;;;9.93;5.45;;;23.20;33.70;;;;;;6096545;28;80605;-64
2021/01/23 04:26:53;;;;;;;9.48;5.10;;;23.20;33.40;;;;;;6084976;28;81226;-65
2021/01/23 04:29:53;;;;;;;7.85;4.68;;;23.20;33.60;;;;;;6102175;28;80860;-65
2021/01/23 04:32:54;;;;;;;9.70;5.47;;;23.20;33.50;;;;;;6103578;28;80470;-64
2021/01/23 04:35:54;;;;;;;8.68;4.28;;;23.10;33.70;;;;;;6103110;28;80430;-65
2021/01/23 04:38:55;;;;;;;7.97;4.65;;;23.20;33.80;;;;;;6091677;28;80595;-64
2021/01/23 04:41:55;;;;;;;8.20;4.75;;;23.10;33.70;;;;;;6103193;28;80609;-65
2021/01/23 04:44:56;;;;;;;9.27;4.93;;;23.20;33.90;;;;;;6102573;28;80356;-65
2021/01/23 04:47:57;;;;;;;9.85;5.22;;;23.20;33.80;;;;;;6101975;28;80773;-65
2021/01/23 04:50:57;;;;;;;8.57;4.90;;;23.10;33.60;;;;;;6090394;28;80867;-64
2021/01/23 04:53:58;;;;;;;9.35;5.00;;;23.20;33.90;;;;;;6093992;28;80920;-64
2021/01/23 04:56:58;;;;;;;8.60;4.55;;;23.20;33.90;;;;;;6102085;28;80875;-64
2021/01/23 04:59:59;;;;;;;9.50;5.20;;;23.20;33.50;;;;;;6092494;28;89444;-64
2021/01/23 05:02:59;;;;;;;8.15;4.90;;;23.10;33.80;;;;;;6092943;28;80943;-64
2021/01/23 05:06:00;;;;;;;12.15;5.00;;;23.10;33.50;;;;;;6101051;28;80752;-65
2021/01/23 05:09:01;;;;;;;9.43;4.47;;;23.10;33.40;;;;;;6093413;28;80843;-64
2021/01/23 05:12:01;;;;;;;10.13;4.82;;;23.10;33.90;;;;;;6094295;28;80796;-64
2021/01/23 05:15:02;;;;;;;8.07;4.75;;;23.10;33.70;;;;;;6099628;28;80827;-64
2021/01/23 05:18:02;;;;;;;16.73;5.55;;;23.10;34.00;;;;;;6081036;28;80632;-63
2021/01/23 05:21:03;;;;;;;11.88;5.65;;;23.10;33.90;;;;;;6085258;28;80595;-64
2021/01/23 05:24:03;;;;;;;9.30;5.20;;;23.10;33.70;;;;;;6093177;28;81139;-63
2021/01/23 05:27:04;;;;;;;9.60;5.38;;;23.10;33.80;;;;;;6104740;28;84732;-63
2021/01/23 05:30:04;;;;;;;10.43;4.97;;;23.10;33.40;;;;;;6107158;28;80468;-64
2021/01/23 05:33:05;;;;;;;8.57;4.97;;;23.10;33.50;;;;;;6096855;28;81305;-63
2021/01/23 05:36:06;;;;;;;10.23;5.00;;;23.10;33.80;;;;;;6106778;28;80582;-63
2021/01/23 05:39:06;;;;;;;13.05;5.57;;;23.10;33.70;;;;;;6106551;28;80617;-64
2021/01/23 05:42:07;;;;;;;11.73;5.93;;;23.10;33.60;;;;;;6099726;28;81620;-64
2021/01/23 05:45:07;;;;;;;11.38;5.60;;;23.10;33.40;;;;;;6096112;28;80558;-65
2021/01/23 05:48:08;;;;;;;11.90;4.80;;;23.20;33.00;;;;;;6099139;28;81343;-61
2021/01/23 05:51:09;;;;;;;9.30;4.70;;;23.20;33.20;;;;;;6101141;28;81153;-62
2021/01/23 05:54:09;;;;;;;10.13;5.68;;;23.20;32.90;;;;;;6100979;28;80978;-65
2021/01/23 05:57:10;;;;;;;10.23;5.32;;;23.20;33.80;;;;;;6112819;28;82821;-62
2021/01/23 06:00:10;;;;;;;8.88;4.72;;;23.30;33.30;;;;;;6097787;28;81624;-64
2021/01/23 06:03:11;;;;;;;7.70;4.47;;;23.30;33.50;;;;;;6102615;28;82028;-65
2021/01/23 06:06:12;;;;;;;7.97;4.50;;;23.40;33.60;;;;;;6091318;28;80600;-64
2021/01/23 06:09:12;;;;;;;8.80;4.38;;;23.40;33.80;;;;;;6099777;28;81166;-63
2021/01/23 06:12:13;;;;;;;8.73;4.90;;;23.50;34.70;;;;;;6104910;28;81475;-64
2021/01/23 06:15:13;;;;;;;10.15;4.95;;;23.50;34.30;;;;;;6098214;28;81648;-64
2021/01/23 06:18:14;;;;;;;9.88;4.88;;;23.50;34.70;;;;;;6101412;28;80676;-63
2021/01/23 06:21:14;;;;;;;9.10;4.55;;;23.50;34.40;;;;;;6102293;28;80428;-63
2021/01/23 06:24:15;;;;;;;12.43;5.18;;;23.60;34.40;;;;;;6111435;28;81654;-65
2021/01/23 06:27:15;;;;;;;7.63;4.40;;;23.60;34.60;;;;;;6096417;28;81558;-66
2021/01/23 06:30:16;;;;;;;14.43;5.97;;;23.70;34.70;;;;;;6096265;28;80628;-64
2021/01/23 06:33:16;;;;;;;17.02;9.73;;;23.60;35.10;;;;;;6101846;28;80631;-63
2021/01/23 06:36:17;;;;;;;38.83;22.17;;;23.70;35.10;;;;;;6089836;28;80876;-63
2021/01/23 06:39:17;;;;;;;38.20;22.65;;;23.70;35.70;;;;;;6102475;28;83228;-62
2021/01/23 06:42:18;;;;;;;40.67;23.10;;;23.80;36.40;;;;;;6093933;28;83312;-62
2021/01/23 06:45:18;;;;;;;40.15;22.52;;;23.80;36.20;;;;;;6092208;28;83276;-63
2021/01/23 06:48:19;;;;;;;41.95;23.33;;;23.90;36.60;;;;;;6096066;28;86428;-63
2021/01/23 06:51:19;;;;;;;35.22;22.38;;;23.90;36.60;;;;;;6082821;28;83281;-65
2021/01/23 06:54:20;;;;;;;39.60;22.42;;;24.00;37.00;;;;;;6099846;28;83315;-64
2021/01/23 06:57:20;;;;;;;40.30;24.05;;;24.00;37.20;;;;;;6090099;28;83634;-64
2021/01/23 07:00:21;;;;;;;54.15;24.98;;;24.00;37.40;;;;;;6094366;28;84519;-65
2021/01/23 07:03:22;;;;;;;38.92;23.25;;;24.00;37.60;;;;;;6093200;28;85107;-63
2021/01/23 07:06:22;;;;;;;36.72;22.60;;;24.10;37.90;;;;;;6092837;28;82998;-63
2021/01/23 07:09:23;;;;;;;36.53;21.85;;;24.00;37.60;;;;;;6099812;28;83466;-63
2021/01/23 07:12:23;;;;;;;35.88;20.02;;;24.10;37.60;;;;;;6094288;28;83752;-63
2021/01/23 07:15:24;;;;;;;32.88;19.85;;;24.10;37.60;;;;;;6098392;28;83289;-64
2021/01/23 07:18:24;;;;;;;35.13;19.50;;;24.10;37.70;;;;;;6096961;28;83778;-64
2021/01/23 07:21:25;;;;;;;32.45;18.90;;;24.00;37.40;;;;;;6086878;28;83824;-64
2021/01/23 07:24:25;;;;;;;29.67;16.98;;;24.00;37.40;;;;;;6099763;28;83151;-65
2021/01/23 07:27:26;;;;;;;32.67;17.92;;;24.00;37.30;;;;;;6093024;28;83225;-72
2021/01/23 07:30:27;;;;;;;32.53;18.08;;;24.00;37.40;;;;;;6097545;28;83422;-68
2021/01/23 07:33:27;;;;;;;29.15;15.93;;;24.00;37.30;;;;;;6096124;28;84691;-67
2021/01/23 07:36:28;;;;;;;28.38;15.32;;;24.00;37.00;;;;;;6091934;28;84437;-66
2021/01/23 07:39:28;;;;;;;23.77;14.73;;;24.00;37.20;;;;;;6099531;28;83303;-66
2021/01/23 07:42:29;;;;;;;28.30;14.65;;;24.00;37.10;;;;;;6099237;28;84024;-66
2021/01/23 07:45:29;;;;;;;26.17;14.85;;;24.00;37.00;;;;;;6099266;28;83459;-65
2021/01/23 07:48:30;;;;;;;24.90;13.63;;;24.00;37.10;;;;;;6093729;28;83619;-65
2021/01/23 07:51:31;;;;;;;25.42;12.90;;;23.90;37.20;;;;;;6087493;28;83530;-65
2021/01/23 07:54:31;;;;;;;23.60;12.60;;;23.90;37.20;;;;;;6097466;28;83420;-64
2021/01/23 07:57:32;;;;;;;26.00;12.85;;;23.90;36.90;;;;;;6091905;28;83449;-65
2021/01/23 08:00:33;;;;;;;23.02;11.00;;;23.90;37.00;;;;;;6091704;28;83490;-65
2021/01/23 08:03:33;;;;;;;19.73;11.70;;;23.90;36.50;;;;;;6092954;28;84339;-64
2021/01/23 08:06:34;;;;;;;19.33;11.57;;;23.90;36.20;;;;;;6098106;28;83233;-64
2021/01/23 08:09:34;;;;;;;19.95;10.93;;;23.90;36.30;;;;;;6094810;28;83659;-63
2021/01/23 08:12:35;;;;;;;17.85;10.88;;;23.90;36.00;;;;;;6092207;28;83054;-63
2021/01/23 08:15:35;;;;;;;21.02;9.60;;;23.90;35.80;;;;;;6089200;28;83182;-63
2021/01/23 08:18:36;;;;;;;18.55;9.65;;;23.90;35.30;;;;;;6099235;28;82929;-64
2021/01/23 08:21:36;;;;;;;16.48;9.18;;;23.90;35.70;;;;;;6094364;28;81877;-63
2021/01/23 08:24:38;;;;;;;26.45;9.52;;;23.90;35.20;;;;;;6097648;28;81518;-63
2021/01/23 08:27:38;;;;;;;16.90;8.18;;;23.90;35.80;;;;;;6103246;28;80458;-65
2021/01/23 08:30:39;;;;;;;14.35;7.43;;;23.90;35.50;;;;;;6095443;28;82664;-64
2021/01/23 08:33:40;;;;;;;15.65;8.30;;;23.80;35.10;;;;;;6093046;28;81815;-63
2021/01/23 08:36:40;;;;;;;14.13;7.45;;;23.80;35.50;;;;;;6099241;28;80824;-62
2021/01/23 08:39:41;;;;;;;13.63;8.13;;;23.80;35.60;;;;;;6100640;28;80453;-64
2021/01/23 08:42:41;;;;;;;21.17;8.63;;;23.80;36.00;;;;;;6098190;28;80526;-64
2021/01/23 08:45:42;;;;;;;14.55;8.23;;;23.80;36.20;;;;;;6094967;28;81422;-63
2021/01/23 08:48:42;;;;;;;18.45;7.45;;;23.90;36.20;;;;;;6102073;28;80808;-65
2021/01/23 08:51:43;;;;;;;14.82;7.43;;;23.90;36.10;;;;;;6093727;28;83209;-66
2021/01/23 08:54:44;;;;;;;12.07;7.65;;;24.00;36.30;;;;;;6101071;28;81702;-65
2021/01/23 08:57:44;;;;;;;12.75;6.78;;;24.00;36.50;;;;;;6093925;28;82121;-64
2021/01/23 09:00:45;;;;;;;14.30;7.15;;;23.90;36.70;;;;;;6105530;28;80934;-64
2021/01/23 09:03:46;;;;;;;10.68;6.75;;;24.00;36.20;;;;;;6095367;28;80744;-65
2021/01/23 09:06:46;;;;;;;10.88;6.50;;;24.00;36.40;;;;;;6104699;28;80804;-64
2021/01/23 09:09:47;;;;;;;15.27;7.07;;;24.00;36.90;;;;;;6100271;28;80665;-65
2021/01/23 09:12:48;;;;;;;11.32;6.38;;;24.00;36.10;;;;;;6095874;28;80990;-64
2021/01/23 09:15:48;;;;;;;15.23;5.88;;;24.00;36.10;;;;;;6105998;28;80609;-64
2021/01/23 09:18:49;;;;;;;16.90;7.38;;;24.00;36.50;;;;;;6103688;28;81591;-64
2021/01/23 09:21:50;;;;;;;13.68;6.40;;;24.00;36.20;;;;;;6107027;28;80671;-65
2021/01/23 09:24:50;;;;;;;12.82;6.75;;;24.00;36.10;;;;;;6100637;28;81020;-64
2021/01/23 09:27:51;;;;;;;9.07;5.95;;;24.00;36.10;;;;;;6097164;28;81056;-64
2021/01/23 09:30:51;;;;;;;9.90;6.30;;;24.00;36.00;;;;;;6104702;28;81910;-64
2021/01/23 09:33:52;;;;;;;10.55;6.35;;;24.00;35.40;;;;;;6100507;28;80441;-64
2021/01/23 09:36:52;;;;;;;13.95;6.28;;;24.00;35.40;;;;;;6104393;28;80711;-65
2021/01/23 09:39:53;;;;;;;14.55;5.82;;;24.00;35.80;;;;;;6104089;28;80523;-66
2021/01/23 09:42:54;;;;;;;17.10;6.07;;;24.00;36.00;;;;;;6099545;28;81141;-66
2021/01/23 09:45:54;;;;;;;11.95;5.53;;;24.00;35.70;;;;;;6099044;28;80829;-65
2021/01/23 09:48:55;;;;;;;12.18;6.00;;;24.00;35.40;;;;;;6106102;28;80710;-66
2021/01/23 09:51:55;;;;;;;10.75;5.90;;;24.00;35.60;;;;;;6101069;28;81820;-66
2021/01/23 09:54:56;;;;;;;9.57;5.90;;;24.00;35.70;;;;;;6105430;28;80999;-65
2021/01/23 09:57:56;;;;;;;11.30;6.03;;;24.00;35.70;;;;;;6105663;28;81283;-65
2021/01/23 10:00:57;;;;;;;11.40;6.05;;;24.00;35.70;;;;;;6098118;28;80405;-66
2021/01/23 10:03:57;;;;;;;11.82;6.70;;;24.00;35.90;;;;;;6099130;28;80480;-66
2021/01/23 10:06:58;;;;;;;11.05;6.32;;;24.00;36.60;;;;;;6102828;28;80674;-65
2021/01/23 10:09:58;;;;;;;12.25;6.30;;;24.00;36.40;;;;;;6103648;28;81937;-65
2021/01/23 10:12:59;;;;;;;14.15;5.88;;;24.00;36.00;;;;;;6098448;28;83414;-64
2021/01/23 10:15:59;;;;;;;11.95;6.80;;;24.00;35.80;;;;;;6101351;28;81565;-64
2021/01/23 10:19:03;;;;;;;12.52;6.18;;;24.00;35.60;;;;;;6091627;28;80850;-65
2021/01/23 10:22:04;;;;;;;13.05;6.15;;;24.00;35.30;;;;;;6103551;28;81426;-65
2021/01/23 10:25:04;;;;;;;13.68;6.30;;;24.00;35.10;;;;;;6090212;28;80305;-66
2021/01/23 10:28:05;;;;;;;13.63;6.63;;;24.00;35.00;;;;;;6099653;28;80712;-66
2021/01/23 10:31:05;;;;;;;16.15;8.02;;;23.90;35.10;;;;;;6081094;28;83906;-66
2021/01/23 10:34:06;;;;;;;17.92;9.85;;;23.90;36.20;;;;;;6096878;28;81173;-64
2021/01/23 10:37:07;;;;;;;17.23;10.30;;;23.80;36.60;;;;;;6079787;28;80475;-64
2021/01/23 10:40:07;;;;;;;18.58;9.15;;;23.80;36.70;;;;;;6091217;28;82756;-65
2021/01/23 10:43:08;;;;;;;17.75;9.35;;;23.70;36.70;;;;;;6101351;28;83724;-65
2021/01/23 10:46:08;;;;;;;17.10;9.02;;;23.70;36.70;;;;;;6104343;28;80666;-65
2021/01/23 10:49:09;;;;;;;20.63;10.05;;;23.70;37.10;;;;;;6104239;28;80590;-70
2021/01/23 10:52:10;;;;;;;20.98;10.45;;;23.70;37.20;;;;;;6088235;28;83484;-64
2021/01/23 10:55:10;;;;;;;23.08;9.85;;;23.70;37.60;;;;;;6095547;28;83216;-64
2021/01/23 10:58:11;;;;;;;22.42;11.00;;;23.70;39.30;;;;;;6101007;28;82754;-64
2021/01/23 11:01:11;;;;;;;26.13;11.50;;;23.80;39.80;;;;;;6096993;28;83277;-65
2021/01/23 11:04:12;;;;;;;22.45;11.73;;;23.90;39.10;;;;;;6091443;28;86577;-63
2021/01/23 11:07:12;;;;;;;22.85;10.80;;;24.00;39.70;;;;;;6100348;28;84620;-64
2021/01/23 11:10:13;;;;;;;28.38;10.95;;;24.10;39.90;;;;;;6114621;28;84083;-64
2021/01/23 11:13:13;;;;;;;31.88;11.98;;;24.10;38.90;;;;;;6088938;28;83301;-65
2021/01/23 11:16:14;;;;;;;19.00;10.68;;;24.10;39.60;;;;;;6099474;28;84351;-66
2021/01/23 11:19:15;;;;;;;22.23;9.48;;;24.10;39.10;;;;;;6092159;28;83777;-66
2021/01/23 11:22:15;;;;;;;21.80;10.88;;;24.20;38.50;;;;;;6103234;28;81739;-74
2021/01/23 11:25:16;;;;;;;18.95;9.45;;;24.20;39.10;;;;;;6106533;28;83629;-66
2021/01/23 11:28:16;;;;;;;17.73;10.23;;;24.30;38.50;;;;;;6104466;28;82922;-67
2021/01/23 11:31:17;;;;;;;22.08;10.90;;;24.30;38.40;;;;;;6092626;28;91689;-67
2021/01/23 11:34:17;;;;;;;25.40;11.38;;;24.20;38.20;;;;;;6099230;28;83466;-66
2021/01/23 11:37:18;;;;;;;23.13;11.60;;;24.30;38.70;;;;;;6090070;28;82913;-65
2021/01/23 11:40:19;;;;;;;24.63;10.57;;;24.20;38.90;;;;;;6096922;28;83450;-66
2021/01/23 11:43:19;;;;;;;31.70;11.35;;;24.20;38.50;;;;;;6086899;28;83718;-66
2021/01/23 11:46:20;;;;;;;24.05;10.88;;;24.20;39.10;;;;;;6100633;28;83145;-71
2021/01/23 11:49:20;;;;;;;20.77;10.35;;;24.30;38.80;;;;;;6097626;28;83672;-67
2021/01/23 11:52:21;;;;;;;19.75;11.27;;;24.30;39.40;;;;;;6095614;28;84100;-65
2021/01/23 11:55:21;;;;;;;22.88;11.38;;;24.30;39.20;;;;;;6094249;28;83309;-65
2021/01/23 11:58:22;;;;;;;25.20;11.85;;;24.30;39.40;;;;;;6097849;28;87529;-64
2021/01/23 12:01:22;;;;;;;22.45;12.43;;;24.40;39.40;;;;;;6097207;28;83568;-68
2021/01/23 12:04:23;;;;;;;27.90;13.40;;;24.30;39.20;;;;;;6096929;28;83620;-64
2021/01/23 12:07:24;;;;;;;30.63;14.77;;;24.30;39.10;;;;;;6100228;28;83187;-63
2021/01/23 12:10:24;;;;;;;39.22;21.15;;;24.30;38.80;;;;;;6089418;28;83738;-63
2021/01/23 12:13:25;;;;;;;41.28;22.70;;;24.30;38.80;;;;;;6077738;28;84209;-63
2021/01/23 12:16:25;;;;;;;43.85;23.35;;;24.30;38.50;;;;;;6071895;28;83423;-66
2021/01/23 12:19:26;;;;;;;47.92;22.27;;;24.30;38.50;;;;;;6071220;28;83411;-74
2021/01/23 12:22:26;;;;;;;42.22;22.30;;;24.30;37.90;;;;;;6060864;28;83223;-68
2021/01/23 12:25:27;;;;;;;42.58;21.60;;;24.30;37.90;;;;;;6073405;28;83808;-66
2021/01/23 12:28:28;;;;;;;44.45;20.10;;;24.30;37.70;;;;;;6070238;28;84173;-68
2021/01/23 12:31:28;;;;;;;37.03;19.42;;;24.20;37.50;;;;;;6076477;28;84197;-66
2021/01/23 12:34:29;;;;;;;32.20;16.63;;;24.30;36.90;;;;;;6075832;28;83285;-68
2021/01/23 12:37:30;;;;;;;30.45;16.60;;;24.30;36.80;;;;;;6074089;28;84213;-67
2021/01/23 12:40:30;;;;;;;29.40;15.18;;;24.30;36.50;;;;;;6073492;28;84348;-66
2021/01/23 12:43:31;;;;;;;25.42;13.85;;;24.30;36.00;;;;;;6069165;28;85379;-66
2021/01/23 12:46:32;;;;;;;36.88;12.55;;;24.30;35.30;;;;;;6076577;28;83171;-65
2021/01/23 12:49:32;;;;;;;25.65;12.20;;;24.30;35.00;;;;;;6067532;28;82960;-66
2021/01/23 12:52:33;;;;;;;22.02;11.73;;;24.30;34.70;;;;;;6067818;28;85281;-66
2021/01/23 12:55:33;;;;;;;23.40;11.68;;;24.30;34.60;;;;;;6057547;28;84365;-65
2021/01/23 12:58:34;;;;;;;19.65;10.95;;;24.30;34.20;;;;;;6073206;28;84367;-64
2021/01/23 13:01:34;;;;;;;22.35;9.77;;;24.30;34.60;;;;;;6073381;28;84864;-70
2021/01/23 13:04:35;;;;;;;24.90;9.38;;;24.40;35.00;;;;;;6067844;28;83676;-69
2021/01/23 13:07:36;;;;;;;16.15;9.30;;;24.40;34.30;;;;;;6075272;28;80522;-67
2021/01/23 13:10:38;;;;;;;18.92;8.23;;;24.40;34.30;;;;;;6076827;28;80555;-67
2021/01/23 13:13:39;;;;;;;15.88;8.77;;;24.30;34.00;;;;;;6095233;28;80705;-67
2021/01/23 13:16:40;;;;;;;14.35;7.90;;;24.20;33.60;;;;;;6101257;28;80450;-69
2021/01/23 13:19:41;;;;;;;16.02;7.25;;;24.20;33.50;;;;;;6087123;28;81312;-68
2021/01/23 13:22:41;;;;;;;15.73;7.47;;;24.10;33.20;;;;;;6101344;28;80687;-68
2021/01/23 13:25:42;;;;;;;13.85;7.75;;;24.10;33.10;;;;;;6099586;28;80279;-68
2021/01/23 13:28:42;;;;;;;15.43;8.25;;;24.00;32.50;;;;;;6098184;28;81787;-66
2021/01/23 13:31:43;;;;;;;17.17;9.23;;;23.90;32.70;;;;;;6100116;28;81101;-66
2021/01/23 13:34:44;;;;;;;13.93;7.40;;;23.80;32.30;;;;;;6091652;28;80739;-66
2021/01/23 13:37:44;;;;;;;14.02;7.68;;;23.90;32.30;;;;;;6098747;28;81360;-65
2021/01/23 13:40:45;;;;;;;17.52;8.05;;;23.70;32.10;;;;;;6098985;28;80546;-66
2021/01/23 13:43:45;;;;;;;12.35;7.38;;;23.60;31.50;;;;;;6079035;28;80329;-65
2021/01/23 13:46:46;;;;;;;17.08;8.05;;;23.30;31.90;;;;;;6087139;28;80898;-66
2021/01/23 13:49:46;;;;;;;17.90;9.98;;;23.20;31.90;;;;;;6094877;28;81350;-65
2021/01/23 13:52:47;;;;;;;19.20;8.77;;;23.00;31.80;;;;;;6101024;28;83031;-65
2021/01/23 13:55:48;;;;;;;14.75;8.20;;;22.90;31.70;;;;;;6099599;28;88371;-65
2021/01/23 13:58:48;;;;;;;17.17;11.30;;;22.70;31.60;;;;;;6103148;28;83033;-65
2021/01/23 14:01:49;;;;;;;19.23;12.02;;;22.60;32.00;;;;;;6104204;28;83171;-65
2021/01/23 14:04:51;;;;;;;20.55;11.15;;;22.30;31.90;;;;;;6092336;28;83781;-65
2021/01/23 14:07:52;;;;;;;10.63;5.60;;;22.20;31.80;;;;;;6098613;28;83115;-65
2021/01/23 14:10:52;;;;;;;7.03;4.47;;;21.90;31.70;;;;;;6094179;28;86814;-66
2021/01/23 14:13:53;;;;;;;6.28;3.03;;;21.60;31.70;;;;;;6082403;28;80981;-66
2021/01/23 14:16:54;;;;;;;8.80;3.33;;;21.20;31.40;;;;;;6079658;28;80447;-66
2021/01/23 14:19:54;;;;;;;5.90;3.15;;;21.00;32.30;;;;;;6077910;28;83245;-65
2021/01/23 14:22:55;;;;;;;5.20;3.17;;;20.80;32.50;;;;;;6057406;28;81987;-74
2021/01/23 14:25:55;;;;;;;9.13;3.35;;;20.90;32.90;;;;;;6047441;28;81797;-70
2021/01/23 14:28:56;;;;;;;6.75;3.30;;;21.30;33.10;;;;;;6078750;28;80274;-68
2021/01/23 14:31:56;;;;;;;6.43;3.22;;;21.70;32.90;;;;;;6075262;28;80722;-67
2021/01/23 14:34:57;;;;;;;7.70;3.33;;;22.00;32.90;;;;;;6077264;28;80560;-66
2021/01/23 14:37:58;;;;;;;7.45;3.53;;;22.20;33.10;;;;;;6079534;28;81622;-68
2021/01/23 14:40:59;;;;;;;7.32;3.65;;;22.40;33.30;;;;;;6068663;28;81118;-68
2021/01/23 14:44:00;;;;;;;13.55;4.88;;;22.60;34.20;;;;;;6080252;28;80834;-67
2021/01/23 14:47:01;;;;;;;9.77;4.22;;;22.70;34.70;;;;;;6074701;28;80515;-70
2021/01/23 14:50:02;;;;;;;8.50;4.43;;;22.80;35.00;;;;;;6078831;28;80920;-68
2021/01/23 14:53:02;;;;;;;14.50;6.35;;;22.90;35.20;;;;;;6071160;28;80743;-68
2021/01/23 14:56:03;;;;;;;14.77;6.93;;;23.00;37.00;;;;;;6076795;28;89508;-69
2021/01/23 14:59:03;;;;;;;17.95;7.70;;;23.10;37.90;;;;;;6077799;28;81461;-70
2021/01/23 15:02:04;;;;;;;14.27;7.70;;;23.20;39.90;;;;;;6079555;28;80764;-66
2021/01/23 15:05:04;;;;;;;15.80;8.38;;;23.30;40.90;;;;;;6069857;28;81594;-67
2021/01/23 15:08:05;;;;;;;15.30;7.57;;;23.30;40.40;;;;;;6080732;28;80956;-72
2021/01/23 15:11:05;;;;;;;22.40;9.43;;;23.40;40.20;;;;;;6075335;28;80720;-65
2021/01/23 15:14:06;;;;;;;21.45;7.72;;;23.50;40.30;;;;;;6089119;28;81438;-64
2021/01/23 15:17:07;;;;;;;16.13;7.70;;;23.50;40.40;;;;;;6099707;28;80942;-66
2021/01/23 15:20:07;;;;;;;15.93;7.70;;;23.50;40.00;;;;;;6115946;28;81399;-64
2021/01/23 15:23:08;;;;;;;17.88;8.57;;;23.60;39.90;;;;;;6099891;28;81763;-66
2021/01/23 15:26:08;;;;;;;16.48;7.72;;;23.60;39.80;;;;;;6096405;28;81104;-63